Time;durP1;ratioP1;P1;durP2;ratioP2;P2;SDS_P1;SDS_P2;PMS_P1;PMS_P2;Temp;Humidity;BMP_temperature;BMP_pressure;BME280_temperature;BME280_humidity;BME280_pressure;Samples;Min_cycle;Max_cycle;Signal;HPM_P1;HPM_P2
2022/02/04 00:02:32;;;;;;;20.00;3.80;;;;;;;4.15;86.14;100000.91;105532;1276;22553;-58
2022/02/04 00:04:48;;;;;;;18.70;6.20;;;;;;;4.15;86.17;99991.44;105369;1276;26694;-58
2022/02/04 00:07:41;;;;;;;17.40;5.80;;;;;;;4.16;86.32;99985.96;105453;1276;25398;-59
2022/02/04 00:21:28;;;;;;;20.80;5.60;;;;;;;4.19;86.36;99985.06;105498;1275;22552;-58
2022/02/04 00:24:00;;;;;;;22.20;4.10;;;;;;;4.19;86.38;99981.90;105468;1275;22604;-59
2022/02/04 00:26:33;;;;;;;16.60;3.80;;;;;;;4.19;86.35;99983.81;105580;1274;25494;-59
2022/02/04 00:29:10;;;;;;;16.40;4.20;;;;;;;4.19;86.44;99980.48;105508;1276;22535;-58
2022/02/04 00:31:45;;;;;;;20.50;4.50;;;;;;;4.20;86.41;99977.91;105386;1276;22580;-58
2022/02/04 00:34:14;;;;;;;17.10;4.30;;;;;;;4.20;86.42;99976.98;105423;1276;22787;-59
2022/02/04 00:36:49;;;;;;;16.80;3.50;;;;;;;4.21;86.46;99975.61;105963;1270;22631;-59
2022/02/04 00:39:22;;;;;;;17.30;4.30;;;;;;;4.21;86.46;99973.23;106092;1270;25257;-60
2022/02/04 00:41:52;;;;;;;21.00;4.30;;;;;;;4.22;86.53;99971.05;106204;1271;24259;-58
2022/02/04 00:44:24;;;;;;;15.00;4.30;;;;;;;4.21;86.48;99968.65;106184;1271;22559;-58
2022/02/04 00:47:00;;;;;;;17.60;4.20;;;;;;;4.21;86.42;99969.05;106148;1271;24425;-57
2022/02/04 00:49:42;;;;;;;14.90;3.50;;;;;;;4.21;86.53;99970.30;105965;1271;24318;-59
2022/02/04 00:52:19;;;;;;;16.30;3.40;;;;;;;4.21;86.54;99966.75;106092;1271;22662;-61
2022/02/04 00:54:53;;;;;;;14.50;3.60;;;;;;;4.22;86.54;99967.61;106045;1271;22767;-56
2022/02/04 00:57:39;;;;;;;16.00;3.10;;;;;;;4.21;86.54;99962.73;106042;1270;22698;-59
2022/02/04 01:28:02;;;;;;;19.20;3.50;;;;;;;4.29;86.34;99934.52;105562;1274;24383;-56
2022/02/04 01:30:34;;;;;;;16.90;3.30;;;;;;;4.30;86.37;99931.58;105647;1273;23233;-57
2022/02/04 01:33:04;;;;;;;17.00;3.60;;;;;;;4.31;86.29;99930.92;105557;1274;22563;-59
2022/02/04 01:35:32;;;;;;;27.00;4.30;;;;;;;4.31;86.22;99927.19;105626;1274;22549;-55
2022/02/04 01:38:00;;;;;;;18.40;3.40;;;;;;;4.32;86.18;99923.36;105593;1274;25340;-58
2022/02/04 01:40:29;;;;;;;15.80;4.30;;;;;;;4.34;86.25;99920.80;105555;1274;22627;-58
2022/02/04 01:42:58;;;;;;;16.00;3.60;;;;;;;4.34;86.29;99918.50;105603;1274;24279;-57
2022/02/04 01:45:27;;;;;;;18.60;4.10;;;;;;;4.35;86.13;99915.48;105912;1274;25382;-57
2022/02/04 01:47:55;;;;;;;18.70;4.00;;;;;;;4.35;86.17;99907.71;105852;1274;22554;-57
2022/02/04 01:50:25;;;;;;;19.60;3.70;;;;;;;4.37;86.15;99903.23;105841;1274;22668;-58
2022/02/04 01:52:55;;;;;;;16.00;3.30;;;;;;;4.37;86.19;99893.70;105788;1274;22596;-59
2022/02/04 01:55:25;;;;;;;19.90;4.30;;;;;;;4.37;86.28;99884.75;105939;1274;22545;-58
2022/02/04 01:57:53;;;;;;;;;;;;;;;4.37;86.25;99877.48;105673;1273;24326;-57
2022/02/04 02:00:22;;;;;;;19.70;4.10;;;;;;;4.37;86.24;99877.41;105889;1271;22544;-57
2022/02/04 02:02:51;;;;;;;18.20;4.30;;;;;;;4.36;86.31;99880.85;106017;1271;22561;-59
2022/02/04 02:05:20;;;;;;;19.70;3.50;;;;;;;4.36;86.38;99879.56;106145;1271;24406;-58
2022/02/04 02:07:49;;;;;;;15.30;3.60;;;;;;;4.37;86.38;99879.63;105961;1271;25336;-59
2022/02/04 02:10:19;;;;;;;15.90;2.70;;;;;;;4.36;86.38;99875.48;106004;1271;22546;-58
2022/02/04 02:12:58;;;;;;;16.10;3.30;;;;;;;4.35;86.41;99872.43;106150;1270;22652;-61
2022/02/04 02:15:32;;;;;;;22.30;4.30;;;;;;;4.34;86.41;99868.92;106038;1271;23822;-59
2022/02/04 02:35:21;;;;;;;22.30;5.10;;;;;;;4.33;86.40;99870.51;106002;1271;22594;-58
2022/02/04 02:41:52;;;;;;;16.40;4.30;;;;;;;4.35;86.41;99863.52;105973;1271;22553;-58
2022/02/04 02:44:15;;;;;;;19.80;4.50;;;;;;;4.37;86.41;99854.76;106000;1271;26516;-60
2022/02/04 02:46:56;;;;;;;17.30;3.60;;;;;;;4.39;86.41;99853.82;105960;1271;22570;-59
2022/02/04 02:49:51;;;;;;;;;;;;;;;4.40;86.34;99858.29;106066;1270;22683;-58
2022/02/04 02:52:26;;;;;;;19.00;3.20;;;;;;;4.40;86.24;99860.43;106042;1270;23244;-59
2022/02/04 02:55:10;;;;;;;14.80;3.30;;;;;;;4.39;86.15;99866.45;106039;1269;24493;-57
2022/02/04 02:57:56;;;;;;;18.10;4.20;;;;;;;4.41;86.26;99864.71;106114;1270;22577;-58
2022/02/04 03:00:34;;;;;;;20.70;5.30;;;;;;;4.43;86.12;99869.31;105844;1270;22547;-57
2022/02/04 03:03:07;;;;;;;22.20;4.40;;;;;;;4.44;86.20;99871.34;105655;1270;23077;-59
2022/02/04 03:05:35;;;;;;;21.30;4.80;;;;;;;4.45;86.16;99872.71;106123;1270;24472;-58
2022/02/04 03:08:06;;;;;;;19.20;4.10;;;;;;;4.46;86.07;99875.14;106135;1270;22543;-60
2022/02/04 03:10:34;;;;;;;19.80;5.20;;;;;;;4.46;86.08;99874.30;105783;1270;22549;-59
2022/02/04 03:13:05;;;;;;;15.50;4.00;;;;;;;4.47;86.04;99873.78;106038;1270;22559;-59
2022/02/04 03:15:35;;;;;;;16.00;4.20;;;;;;;4.47;86.16;99873.52;105879;1270;26495;-58
2022/02/04 03:18:07;;;;;;;20.10;5.00;;;;;;;4.49;86.09;99865.48;106362;1270;22541;-59
2022/02/04 03:20:46;;;;;;;14.20;4.30;;;;;;;4.52;86.30;99865.23;106146;1271;22556;-58
2022/02/04 03:23:15;;;;;;;16.30;3.60;;;;;;;4.54;86.33;99866.74;106073;1271;25400;-59
2022/02/04 03:25:48;;;;;;;14.60;4.20;;;;;;;4.54;86.32;99863.71;106106;1270;22576;-58
2022/02/04 03:28:22;;;;;;;20.00;6.30;;;;;;;4.56;86.34;99864.20;105926;1270;24421;-58
2022/02/04 03:30:52;;;;;;;23.00;6.60;;;;;;;4.55;86.17;99867.80;105992;1271;24392;-59
2022/02/04 03:33:24;;;;;;;;;;;;;;;4.54;86.09;99873.13;106121;1271;22518;-59
2022/02/04 03:35:53;;;;;;;25.40;6.80;;;;;;;4.54;86.27;99874.55;106028;1270;22554;-58
2022/02/04 03:38:21;;;;;;;24.90;7.70;;;;;;;4.56;86.32;99872.57;106192;1270;22674;-59
2022/02/04 03:40:49;;;;;;;24.90;7.40;;;;;;;4.57;86.34;99872.14;106041;1271;22535;-58
2022/02/04 03:43:18;;;;;;;32.40;10.20;;;;;;;4.58;86.31;99871.73;106244;1271;22560;-56
2022/02/04 03:45:46;;;;;;;33.70;11.50;;;;;;;4.57;86.29;99871.92;105847;1270;24329;-59
2022/02/04 03:48:16;;;;;;;28.30;10.00;;;;;;;4.56;86.26;99875.91;106002;1268;24209;-58
2022/02/04 03:50:44;;;;;;;25.60;9.60;;;;;;;4.55;86.33;99872.98;106190;1270;25385;-59
2022/02/04 03:53:14;;;;;;;23.40;6.60;;;;;;;4.56;86.42;99857.33;106023;1271;22616;-58
2022/02/04 03:55:42;;;;;;;23.30;7.90;;;;;;;4.56;86.41;99857.73;106131;1271;26642;-58
2022/02/04 03:58:13;;;;;;;25.20;7.80;;;;;;;4.54;86.34;99858.89;106179;1271;22713;-59
2022/02/04 04:00:41;;;;;;;27.50;8.80;;;;;;;4.54;86.41;99857.02;105980;1271;26636;-58
2022/02/04 04:03:10;;;;;;;22.70;8.60;;;;;;;4.53;86.43;99851.66;106002;1271;24231;-58
2022/02/04 04:05:44;;;;;;;22.40;8.00;;;;;;;4.51;86.37;99847.61;106232;1271;25435;-60
2022/02/04 04:08:14;;;;;;;29.20;8.30;;;;;;;4.49;86.32;99848.34;105940;1271;26317;-60
2022/02/04 04:10:43;;;;;;;23.80;7.50;;;;;;;4.46;86.27;99842.08;106154;1270;22553;-58
2022/02/04 04:13:14;;;;;;;29.50;8.90;;;;;;;4.43;86.25;99839.71;106144;1270;23186;-58
2022/02/04 04:15:43;;;;;;;28.50;7.90;;;;;;;4.39;86.20;99837.92;106205;1270;25124;-58
2022/02/04 04:18:14;;;;;;;27.50;7.50;;;;;;;4.37;86.23;99832.96;106175;1271;25761;-58
2022/02/04 04:20:45;;;;;;;23.30;6.70;;;;;;;4.36;86.27;99834.36;106206;1270;22561;-59
2022/02/04 04:23:14;;;;;;;22.70;7.10;;;;;;;4.35;86.28;99833.84;106070;1271;22534;-59
2022/02/04 04:25:44;;;;;;;18.80;6.50;;;;;;;4.34;86.27;99835.75;105982;1270;25522;-58
2022/02/04 04:28:14;;;;;;;23.80;6.00;;;;;;;4.33;86.24;99835.95;106115;1271;22616;-59
2022/02/04 04:30:42;;;;;;;24.20;6.50;;;;;;;4.32;86.23;99844.28;105991;1270;25366;-59
2022/02/04 04:33:11;;;;;;;21.70;6.20;;;;;;;4.33;86.36;99838.54;106125;1270;22557;-58
2022/02/04 04:35:40;;;;;;;21.20;6.70;;;;;;;4.34;86.30;99834.65;106093;1271;25258;-59
2022/02/04 04:38:13;;;;;;;24.10;6.80;;;;;;;4.32;86.18;99834.15;106055;1270;22553;-58
2022/02/04 04:41:06;;;;;;;24.10;6.10;;;;;;;4.32;86.29;99829.81;105942;1271;25650;-58
2022/02/04 04:43:54;;;;;;;21.80;6.20;;;;;;;4.32;86.23;99829.66;106048;1270;25258;-59
2022/02/04 05:26:20;;;;;;;26.70;9.60;;;;;;;4.42;86.27;99835.18;105123;1281;22550;-57
2022/02/04 05:28:59;;;;;;;28.20;9.80;;;;;;;4.40;86.18;99829.05;105521;1276;26287;-59
2022/02/04 05:31:28;;;;;;;22.70;8.60;;;;;;;4.39;86.02;99827.54;105497;1276;22722;-58
2022/02/04 05:33:56;;;;;;;28.30;7.60;;;;;;;4.38;86.15;99830.23;105438;1276;22580;-59
2022/02/04 05:36:25;;;;;;;24.70;7.40;;;;;;;4.37;86.14;99826.95;105521;1271;22534;-59
2022/02/04 05:38:54;;;;;;;19.50;6.80;;;;;;;4.36;86.15;99820.05;106094;1271;22709;-58
2022/02/04 05:41:28;;;;;;;18.90;5.60;;;;;;;4.34;86.05;99823.90;105996;1268;24379;-58
2022/02/04 05:43:59;;;;;;;21.50;6.10;;;;;;;4.30;85.95;99827.83;105992;1271;22811;-59
2022/02/04 05:46:33;;;;;;;19.00;6.10;;;;;;;4.30;86.00;99826.81;106000;1271;22697;-58
2022/02/04 05:49:03;;;;;;;21.70;6.60;;;;;;;4.28;85.88;99826.23;105991;1271;24380;-57
2022/02/04 05:51:43;;;;;;;21.70;5.90;;;;;;;4.29;86.01;99820.95;106008;1270;22525;-58
2022/02/04 05:54:17;;;;;;;25.20;6.50;;;;;;;4.30;86.08;99823.98;106143;1270;22995;-59
2022/02/04 05:56:55;;;;;;;20.80;6.00;;;;;;;4.33;86.05;99828.77;105968;1271;24287;-59
2022/02/04 05:59:32;;;;;;;22.00;6.20;;;;;;;4.34;86.02;99831.50;105914;1271;24358;-58
2022/02/04 06:02:08;;;;;;;20.00;5.60;;;;;;;4.36;86.04;99839.80;105981;1270;22795;-59
2022/02/04 06:04:51;;;;;;;19.40;5.80;;;;;;;4.37;86.00;99840.36;105821;1268;25267;-59
2022/02/04 06:07:28;;;;;;;21.40;6.30;;;;;;;4.39;85.98;99843.94;106041;1268;25323;-58
2022/02/04 06:23:55;;;;;;;20.00;5.90;;;;;;;4.35;85.72;99862.23;105550;1273;22561;-59
2022/02/04 06:26:24;;;;;;;19.70;6.30;;;;;;;4.36;85.80;99864.05;105719;1273;22550;-60
2022/02/04 06:28:53;;;;;;;18.70;5.90;;;;;;;4.32;85.68;99868.81;105391;1274;25251;-59
2022/02/04 06:31:23;;;;;;;21.90;5.60;;;;;;;4.32;85.79;99865.36;105496;1273;25346;-61
2022/02/04 06:33:52;;;;;;;18.90;6.60;;;;;;;4.33;85.99;99867.67;105550;1273;22570;-58
2022/02/04 06:36:21;;;;;;;18.50;5.70;;;;;;;4.35;85.93;99864.70;105731;1273;22583;-58
2022/02/04 06:38:49;;;;;;;22.20;6.50;;;;;;;4.37;85.98;99870.46;105400;1273;22563;-59
2022/02/04 06:41:17;;;;;;;20.30;5.30;;;;;;;4.40;85.95;99871.25;105406;1273;25341;-59
2022/02/04 06:43:46;;;;;;;22.70;6.30;;;;;;;4.41;86.03;99871.44;105362;1275;23248;-60
2022/02/04 06:46:14;;;;;;;21.00;5.90;;;;;;;4.43;86.04;99869.96;105182;1273;22706;-60
2022/02/04 06:48:48;;;;;;;21.70;5.60;;;;;;;4.44;86.06;99871.17;105962;1268;22544;-59
2022/02/04 06:51:18;;;;;;;21.70;5.40;;;;;;;4.46;86.06;99870.23;106113;1268;22557;-59
2022/02/04 06:53:47;;;;;;;15.90;5.20;;;;;;;4.47;85.99;99871.72;105895;1267;22604;-59
2022/02/04 06:56:15;;;;;;;21.60;6.40;;;;;;;4.48;86.04;99873.11;106044;1271;22619;-58
2022/02/04 06:58:44;;;;;;;19.00;5.00;;;;;;;4.49;86.11;99873.86;106089;1268;22534;-59
2022/02/04 07:01:12;;;;;;;19.30;5.30;;;;;;;4.49;85.98;99874.62;105893;1268;24383;-59
2022/02/04 07:03:41;;;;;;;22.20;6.50;;;;;;;4.48;85.88;99875.63;106266;1268;24422;-59
2022/02/04 07:06:13;;;;;;;20.80;6.60;;;;;;;4.47;85.87;99880.71;106157;1270;22540;-59
2022/02/04 07:08:56;;;;;;;23.60;6.70;;;;;;;4.48;86.01;99879.10;106259;1268;22569;-60
2022/02/04 07:11:45;;;;;;;30.70;8.00;;;;;;;4.49;86.03;99885.21;105878;1271;22696;-60
2022/02/04 07:14:23;;;;;;;24.00;7.80;;;;;;;4.50;86.01;99888.03;105876;1271;24503;-60
2022/02/04 07:17:11;;;;;;;24.40;8.50;;;;;;;4.51;86.08;99890.31;105922;1268;24319;-59
2022/02/04 07:19:46;;;;;;;26.00;8.30;;;;;;;4.49;85.99;99888.14;105897;1268;22592;-58
2022/02/04 07:22:15;;;;;;;18.70;6.50;;;;;;;4.49;86.05;99884.45;105926;1271;25336;-60
2022/02/04 07:24:43;;;;;;;22.20;6.50;;;;;;;4.48;86.09;99887.85;106046;1271;22531;-60
2022/02/04 07:27:12;;;;;;;24.40;7.40;;;;;;;4.48;86.17;99880.91;106056;1270;22704;-60
2022/02/04 07:29:42;;;;;;;25.50;6.60;;;;;;;4.48;86.20;99882.17;106260;1270;22554;-59
2022/02/04 07:32:16;;;;;;;21.80;7.70;;;;;;;4.50;86.29;99880.45;105858;1268;22534;-59
2022/02/04 07:35:00;;;;;;;26.90;8.00;;;;;;;4.51;86.33;99878.27;105974;1270;24237;-59
2022/02/04 07:43:04;;;;;;;26.00;7.10;;;;;;;4.57;86.45;99884.32;105889;1268;24885;-60
2022/02/04 07:45:34;;;;;;;21.60;7.80;;;;;;;4.58;86.58;99882.70;106051;1268;25334;-60
2022/02/04 07:48:04;;;;;;;25.00;8.70;;;;;;;4.60;86.63;99883.90;105950;1268;22531;-60
2022/02/04 07:50:33;;;;;;;26.30;9.10;;;;;;;4.61;86.72;99887.19;105996;1268;22541;-61
2022/02/04 07:53:02;;;;;;;24.90;9.60;;;;;;;4.63;86.81;99887.27;105950;1268;24231;-58
2022/02/04 07:55:31;;;;;;;29.00;9.10;;;;;;;4.65;86.82;99890.34;106234;1268;25329;-59
2022/02/04 07:57:59;;;;;;;25.60;10.20;;;;;;;4.69;86.72;99893.30;105986;1268;22534;-59
2022/02/04 08:00:28;;;;;;;24.80;9.80;;;;;;;4.71;86.78;99893.08;106076;1268;22554;-60
2022/02/04 08:03:02;;;;;;;31.60;10.30;;;;;;;4.74;86.80;99895.09;105903;1268;24319;-59
2022/02/04 08:05:32;;;;;;;26.20;10.80;;;;;;;4.75;86.83;99892.27;106167;1268;22726;-61
2022/02/04 08:08:14;;;;;;;31.80;10.30;;;;;;;4.78;86.80;99890.85;106013;1268;25320;-60
2022/02/04 08:10:48;;;;;;;29.20;10.70;;;;;;;4.80;86.85;99893.55;105910;1268;22535;-59
2022/02/04 08:13:38;;;;;;;30.70;12.50;;;;;;;4.82;86.92;99893.27;105967;1271;24383;-60
2022/02/04 08:16:34;;;;;;;32.20;10.80;;;;;;;4.82;86.93;99895.88;105848;1268;23563;-59
2022/02/04 08:22:19;;;;;;;32.60;11.20;;;;;;;4.84;87.28;99900.34;105263;1276;25310;-59
2022/02/04 08:25:02;;;;;;;27.40;10.00;;;;;;;4.85;87.34;99898.58;105379;1275;25411;-60
2022/02/04 08:33:35;;;;;;;31.20;10.60;;;;;;;4.96;87.86;99894.88;105342;1275;22617;-59
2022/02/04 08:39:05;;;;;;;33.60;14.40;;;;;;;5.06;88.03;99895.97;105430;1275;24123;-61
2022/02/04 08:47:36;;;;;;;46.40;18.80;;;;;;;5.23;88.18;99902.77;105326;1275;25346;-61
2022/02/04 08:50:35;;;;;;;35.10;16.90;;;;;;;5.30;88.20;99906.14;105372;1275;22573;-59
2022/02/04 08:53:20;;;;;;;32.20;13.40;;;;;;;5.36;88.31;99906.61;105381;1274;24552;-60
2022/02/04 08:55:52;;;;;;;31.10;13.10;;;;;;;5.42;88.05;99909.02;105311;1275;22591;-60
2022/02/04 08:58:28;;;;;;;25.30;9.20;;;;;;;5.47;88.10;99909.77;105841;1271;24427;-60
2022/02/04 09:01:03;;;;;;;26.20;8.80;;;;;;;5.50;88.02;99912.02;105864;1271;22553;-60
2022/02/04 09:03:41;;;;;;;24.10;9.00;;;;;;;5.55;88.07;99912.33;105901;1270;22537;-60
2022/02/04 09:06:13;;;;;;;22.90;7.80;;;;;;;5.59;88.12;99906.46;105934;1268;22688;-60
2022/02/04 09:08:44;;;;;;;21.10;9.10;;;;;;;5.63;88.15;99905.75;105957;1270;22554;-60
2022/02/04 09:11:16;;;;;;;26.40;8.70;;;;;;;5.68;88.12;99903.34;105736;1270;22553;-60
2022/02/04 09:16:58;;;;;;;22.30;9.50;;;;;;;5.78;88.08;99913.10;105843;1270;24237;-59
2022/02/04 09:19:38;;;;;;;24.10;8.50;;;;;;;5.83;87.88;99912.52;105731;1270;22531;-60
2022/02/04 09:22:20;;;;;;;24.40;10.30;;;;;;;5.87;87.83;99908.36;105796;1270;22556;-60
2022/02/04 09:24:48;;;;;;;22.90;8.70;;;;;;;5.92;87.88;99909.67;105879;1270;22975;-60
2022/02/04 09:27:17;;;;;;;23.50;8.20;;;;;;;5.96;87.81;99909.20;106058;1269;25786;-62
2022/02/04 09:29:46;;;;;;;21.40;8.30;;;;;;;6.00;87.75;99908.95;106152;1271;22519;-59
2022/02/04 09:32:14;;;;;;;24.90;10.20;;;;;;;6.04;87.61;99910.92;105969;1268;271255;-61
2022/02/04 09:34:43;;;;;;;21.60;9.20;;;;;;;6.08;87.57;99907.44;106197;1271;24239;-62
2022/02/04 09:37:11;;;;;;;17.70;7.20;;;;;;;6.12;87.53;99907.67;106396;1268;24223;-60
2022/02/04 09:39:42;;;;;;;21.30;7.80;;;;;;;6.17;87.21;99908.04;106376;1271;22545;-60
2022/02/04 09:42:13;;;;;;;18.40;7.10;;;;;;;6.20;87.28;99909.96;106422;1268;25374;-61
2022/02/04 09:44:41;;;;;;;23.50;7.80;;;;;;;6.24;87.17;99912.26;106371;1271;25374;-61
2022/02/04 09:47:16;;;;;;;17.60;7.00;;;;;;;6.29;87.23;99911.05;106554;1268;22551;-60
2022/02/04 09:49:48;;;;;;;16.80;5.40;;;;;;;6.34;87.07;99908.94;106358;1271;22553;-61
2022/02/04 10:09:37;;;;;;;16.40;5.50;;;;;;;6.71;86.60;99908.17;106219;1268;25112;-63
2022/02/04 10:12:32;;;;;;;17.10;5.20;;;;;;;6.74;86.15;99905.64;105961;1271;25340;-60
2022/02/04 10:15:17;;;;;;;20.80;7.10;;;;;;;6.77;86.32;99906.23;106920;1271;22539;-61
2022/02/04 10:18:00;;;;;;;18.20;5.40;;;;;;;6.81;86.34;99903.13;106266;1271;23340;-60
2022/02/04 10:20:28;;;;;;;18.30;5.00;;;;;;;6.84;85.82;99895.39;106366;1271;22573;-62
2022/02/04 10:23:00;;;;;;;15.50;5.60;;;;;;;6.84;85.76;99890.95;106424;1268;25217;-60
2022/02/04 10:25:32;;;;;;;14.30;5.00;;;;;;;6.85;85.54;99890.42;106492;1271;22538;-61
2022/02/04 10:28:05;;;;;;;17.80;5.40;;;;;;;6.84;85.11;99892.55;106211;1271;25261;-63
2022/02/04 10:30:35;;;;;;;15.10;5.30;;;;;;;6.83;85.14;99890.14;106224;1268;25222;-58
2022/02/04 10:33:03;;;;;;;18.50;6.20;;;;;;;6.82;85.15;99892.64;106247;1268;22569;-59
2022/02/04 10:35:34;;;;;;;18.80;5.40;;;;;;;6.81;85.27;99891.96;106749;1270;24272;-59
2022/02/04 10:38:12;;;;;;;18.20;6.10;;;;;;;6.82;85.37;99892.09;106306;1271;25401;-59
2022/02/04 10:40:49;;;;;;;21.20;5.90;;;;;;;6.84;85.46;99883.61;106323;1271;22539;-59
2022/02/04 10:43:33;;;;;;;18.40;6.40;;;;;;;6.84;85.26;99880.87;106709;1270;26137;-62
2022/02/04 10:46:15;;;;;;;17.90;5.60;;;;;;;6.86;85.28;99880.49;106297;1268;24240;-61
2022/02/04 10:52:11;;;;;;;18.70;5.80;;;;;;;6.87;85.10;99874.73;106398;1271;22607;-59
2022/02/04 10:57:53;;;;;;;14.70;5.70;;;;;;;6.91;85.04;99874.54;106271;1271;22572;-60
2022/02/04 11:00:26;;;;;;;16.80;5.30;;;;;;;6.93;84.86;99877.71;106487;1271;22541;-62
2022/02/04 11:03:06;;;;;;;18.80;6.40;;;;;;;6.95;84.88;99872.81;106375;1268;22576;-64
2022/02/04 11:05:50;;;;;;;18.20;6.70;;;;;;;6.97;84.93;99873.43;106349;1271;22600;-60
2022/02/04 11:08:53;;;;;;;16.40;5.70;;;;;;;6.97;84.52;99874.80;106506;1271;23504;-64
2022/02/04 11:11:52;;;;;;;17.50;5.40;;;;;;;6.99;84.69;99873.35;106174;1271;23548;-60
2022/02/04 11:31:31;;;;;;;17.20;5.20;;;;;;;7.19;84.21;99855.48;105215;1279;24368;-62
2022/02/04 11:34:13;;;;;;;17.70;5.30;;;;;;;7.23;84.32;99850.45;105428;1280;22682;-60
2022/02/04 11:49:21;;;;;;;12.30;3.60;;;;;;;7.32;82.88;99830.86;105373;1279;23064;-59
2022/02/04 11:52:06;;;;;;;12.40;3.60;;;;;;;7.33;82.72;99831.24;105401;1279;22550;-60
2022/02/04 11:54:41;;;;;;;12.20;3.60;;;;;;;7.33;82.52;99832.45;105448;1279;22545;-59
2022/02/04 11:57:21;;;;;;;15.90;4.70;;;;;;;7.33;82.85;99827.96;105822;1275;22616;-58
2022/02/04 11:59:52;;;;;;;16.40;5.50;;;;;;;7.34;83.23;99823.09;106011;1271;25379;-59
2022/02/04 12:02:44;;;;;;;13.40;4.40;;;;;;;7.37;83.31;99822.96;106922;1271;22547;-57
2022/02/04 12:05:35;;;;;;;12.60;4.40;;;;;;;7.37;82.77;99826.65;105632;1276;24366;-58
2022/02/04 12:08:36;;;;;;;15.50;3.60;;;;;;;7.32;82.43;99821.98;105919;1274;25231;-58
2022/02/04 12:11:08;;;;;;;13.00;3.00;;;;;;;7.29;82.08;99821.99;105763;1274;22723;-59
2022/02/04 12:14:13;;;;;;;14.30;3.90;;;;;;;7.29;82.25;99820.17;105887;1273;22526;-58
2022/02/04 12:17:07;;;;;;;13.20;3.60;;;;;;;7.29;82.29;99815.88;105515;1281;22683;-56
2022/02/04 12:19:41;;;;;;;14.90;4.40;;;;;;;7.30;82.33;99814.80;105476;1281;24238;-63
2022/02/04 12:22:12;;;;;;;15.40;4.80;;;;;;;7.31;82.19;99812.37;106897;1281;22745;-59
2022/02/04 12:24:48;;;;;;;13.00;4.00;;;;;;;7.33;82.17;99811.73;105615;1281;22538;-59
2022/02/04 12:27:37;;;;;;;16.60;5.00;;;;;;;7.34;81.96;99811.73;105468;1281;22701;-61
2022/02/04 12:30:44;;;;;;;16.40;4.80;;;;;;;7.37;81.83;99807.75;105436;1281;24433;-61
2022/02/04 12:33:17;;;;;;;18.30;5.70;;;;;;;7.38;81.82;99806.67;105383;1281;25408;-59
2022/02/04 12:35:45;;;;;;;18.20;6.00;;;;;;;7.38;81.56;99806.60;105399;1280;22566;-60
2022/02/04 12:38:14;;;;;;;22.00;6.10;;;;;;;7.37;81.25;99804.88;105208;1281;22652;-61
2022/02/04 12:40:43;;;;;;;19.50;6.50;;;;;;;7.38;81.37;99804.23;105186;1281;22530;-59
2022/02/04 12:43:12;;;;;;;19.10;7.30;;;;;;;7.38;81.53;99803.75;106047;1274;24253;-60
2022/02/04 12:45:41;;;;;;;17.80;6.00;;;;;;;7.40;81.50;99798.09;105558;1275;22538;-59
2022/02/04 12:48:10;;;;;;;19.70;6.70;;;;;;;7.43;81.33;99796.08;105586;1274;23050;-60
2022/02/04 12:50:40;;;;;;;14.60;5.50;;;;;;;7.43;81.22;99793.97;105612;1275;25576;-60
2022/02/04 12:53:09;;;;;;;19.20;5.70;;;;;;;7.44;81.06;99791.07;105629;1272;25257;-61
2022/02/04 12:56:01;;;;;;;19.90;6.90;;;;;;;7.44;81.11;99785.67;106151;1271;22538;-61
2022/02/04 13:07:40;;;;;;;20.10;7.00;;;;;;;7.41;80.52;99790.52;105466;1275;22624;-59
2022/02/04 13:10:08;;;;;;;;;;;;;;;7.39;80.56;99792.97;105502;1274;22521;-59
2022/02/04 13:12:50;;;;;;;18.50;5.50;;;;;;;7.38;80.59;99789.06;105893;1274;25445;-59
2022/02/04 13:15:20;;;;;;;19.70;6.70;;;;;;;7.38;80.72;99789.39;105605;1274;25299;-58
2022/02/04 13:17:50;;;;;;;17.00;6.10;;;;;;;7.38;80.70;99795.96;105475;1274;24447;-60
2022/02/04 13:20:23;;;;;;;17.90;6.40;;;;;;;7.38;80.31;99797.57;105500;1275;22742;-59
2022/02/04 13:22:54;;;;;;;18.30;6.90;;;;;;;7.35;80.16;99793.22;105701;1274;25457;-60
2022/02/04 13:25:24;;;;;;;17.80;5.30;;;;;;;7.35;80.39;99792.11;105995;1274;22559;-61
2022/02/04 13:28:11;;;;;;;20.50;6.90;;;;;;;7.34;80.28;99788.75;106206;1274;22602;-60
2022/02/04 13:30:48;;;;;;;14.30;5.30;;;;;;;7.32;80.33;99787.30;105927;1274;26034;-61
2022/02/04 13:33:20;;;;;;;18.40;6.90;;;;;;;7.32;80.56;99782.25;106072;1274;22925;-62
2022/02/04 13:36:04;;;;;;;19.20;6.90;;;;;;;7.31;80.44;99780.40;105972;1274;22658;-61
2022/02/04 13:38:45;;;;;;;25.60;7.80;;;;;;;7.29;80.72;99773.34;106182;1274;22688;-60
2022/02/04 13:41:25;;;;;;;24.50;8.90;;;;;;;7.29;80.82;99769.14;106316;1268;22560;-61
2022/02/04 13:44:25;;;;;;;22.30;8.60;;;;;;;7.27;80.91;99773.48;106450;1269;22714;-61
2022/02/04 13:47:00;;;;;;;21.00;8.00;;;;;;;7.22;80.90;99770.45;106407;1272;22528;-58
2022/02/04 13:52:21;;;;;;;25.30;8.50;;;;;;;7.18;80.63;99764.92;106269;1271;25594;-58
2022/02/04 13:55:15;;;;;;;22.30;8.20;;;;;;;7.14;80.45;99762.47;106387;1271;22532;-60
2022/02/04 13:57:51;;;;;;;19.90;7.30;;;;;;;7.10;80.48;99756.73;106407;1271;22550;-59
2022/02/04 14:00:29;;;;;;;22.80;8.70;;;;;;;7.08;80.56;99752.87;107005;1271;22489;-61
2022/02/04 14:03:12;;;;;;;22.60;7.90;;;;;;;7.09;80.60;99760.52;106848;1268;23251;-61
2022/02/04 14:05:49;;;;;;;19.30;7.40;;;;;;;7.07;80.38;99759.64;106415;1272;22613;-59
2022/02/04 14:08:30;;;;;;;19.20;6.80;;;;;;;7.06;80.29;99763.33;106249;1271;22528;-59
2022/02/04 14:11:03;;;;;;;19.00;7.00;;;;;;;7.05;80.10;99758.85;106352;1271;22774;-58
2022/02/04 14:13:33;;;;;;;20.40;7.00;;;;;;;7.04;80.13;99753.28;106343;1271;22675;-59
2022/02/04 14:16:06;;;;;;;23.70;7.30;;;;;;;7.03;79.76;99752.39;106339;1268;22538;-59
2022/02/04 14:18:36;;;;;;;18.80;6.50;;;;;;;7.01;79.79;99749.54;106795;1268;22532;-61
2022/02/04 14:21:09;;;;;;;21.40;7.20;;;;;;;7.02;79.82;99748.32;106437;1271;22569;-62
2022/02/04 14:23:39;;;;;;;16.30;5.30;;;;;;;7.01;79.60;99743.52;106499;1271;22540;-58
2022/02/04 14:26:10;;;;;;;;;;;;;;;7.00;79.41;99741.42;106411;1268;22530;-61
2022/02/04 14:28:46;;;;;;;18.40;6.30;;;;;;;6.99;79.34;99734.70;106354;1268;22478;-62
2022/02/04 14:31:22;;;;;;;17.20;5.40;;;;;;;7.00;79.25;99728.51;106229;1271;26552;-59
2022/02/04 14:36:59;;;;;;;21.90;6.10;;;;;;;7.01;79.13;99716.08;106160;1268;22901;-61
2022/02/04 14:53:37;;;;;;;18.30;6.70;;;;;;;6.99;78.98;99708.65;106250;1274;24275;-61
2022/02/04 15:01:54;;;;;;;20.70;7.60;;;;;;;6.95;78.74;99706.19;105849;1281;22716;-61
2022/02/04 15:04:36;;;;;;;21.30;7.00;;;;;;;6.94;78.52;99710.54;105871;1277;22541;-61
2022/02/04 15:07:06;;;;;;;19.10;5.70;;;;;;;6.93;78.64;99700.98;105849;1279;22569;-59
2022/02/04 15:09:36;;;;;;;;;;;;;;;6.92;78.48;99700.33;105984;1278;22623;-59
2022/02/04 15:12:07;;;;;;;17.90;5.70;;;;;;;6.91;78.75;99692.45;105723;1278;24585;-62
2022/02/04 15:14:35;;;;;;;17.90;5.80;;;;;;;6.89;78.29;99693.22;106250;1280;23950;-59
2022/02/04 15:17:05;;;;;;;20.00;6.00;;;;;;;6.87;78.31;99697.00;105827;1279;22548;-59
2022/02/04 15:19:34;;;;;;;21.50;5.90;;;;;;;6.86;78.26;99694.75;105956;1279;22638;-59
2022/02/04 15:22:07;;;;;;;18.20;5.70;;;;;;;6.85;77.99;99697.40;106043;1279;23349;-61
2022/02/04 15:24:36;;;;;;;18.80;6.40;;;;;;;6.82;78.04;99699.05;106201;1279;22619;-59
2022/02/04 15:27:06;;;;;;;17.90;5.80;;;;;;;6.82;78.01;99701.46;106208;1274;24079;-62
2022/02/04 15:29:40;;;;;;;19.40;6.60;;;;;;;6.79;77.94;99699.11;106072;1274;22644;-61
2022/02/04 15:32:09;;;;;;;21.00;6.90;;;;;;;6.77;78.06;99698.41;106039;1274;22649;-59
2022/02/04 15:34:38;;;;;;;24.40;8.20;;;;;;;6.76;77.91;99692.18;106134;1274;22615;-58
2022/02/04 15:37:07;;;;;;;23.10;8.70;;;;;;;6.74;78.15;99688.94;106488;1274;22583;-61
2022/02/04 15:39:36;;;;;;;23.60;8.20;;;;;;;6.72;78.01;99683.66;106493;1271;22521;-61
2022/02/04 15:42:10;;;;;;;23.00;9.20;;;;;;;6.71;78.07;99677.06;106646;1270;22621;-61
2022/02/04 15:44:46;;;;;;;30.10;10.60;;;;;;;6.70;78.23;99673.54;106463;1271;25331;-62
2022/02/04 15:47:29;;;;;;;26.40;10.30;;;;;;;6.69;78.17;99662.89;106445;1271;22572;-63
2022/02/04 15:50:27;;;;;;;24.50;9.50;;;;;;;6.66;77.97;99660.50;106360;1271;23310;-60